AUA119G LOWW-LOWG
Flight info
| Callsign | AUA119G |
|---|---|
| Flight time | 0h 22m |
| Altitude | 14000 |
| Route | RUPET RUPET3M |
| Aircraft | A320/M-SDE3FGHIRWY/LB1 |
Departure
| Time | 2026-04-25 12:23 |
|---|---|
| Airport | Vienna International Airport (LOWW) |
Arrival
| Time | 2026-04-25 12:45 |
|---|---|
| Airport | Graz Airport (LOWG) |
| Time | Latitude | Longitude | Altitude | Speed | Heading |
|---|---|---|---|---|---|
| 2026-04-25 11:56 | 48.11827 | 16.56985 | 619 ft | 0 kts | 206° |
| 2026-04-25 12:14 | 48.11829 | 16.56987 | 610 ft | 3 kts | 206° |
| 2026-04-25 12:15 | 48.11853 | 16.57004 | 627 ft | 4 kts | 201° |
| 2026-04-25 12:15 | 48.11878 | 16.57014 | 621 ft | 4 kts | 181° |
| 2026-04-25 12:15 | 48.11899 | 16.57006 | 627 ft | 3 kts | 119° |
| 2026-04-25 12:15 | 48.11900 | 16.57003 | 627 ft | 0 kts | 116° |
| 2026-04-25 12:17 | 48.11900 | 16.57004 | 627 ft | 1 kts | 116° |
| 2026-04-25 12:17 | 48.11895 | 16.57019 | 624 ft | 0 kts | 116° |
| 2026-04-25 12:17 | 48.11890 | 16.57034 | 624 ft | 3 kts | 116° |
| 2026-04-25 12:18 | 48.11870 | 16.57096 | 622 ft | 12 kts | 116° |
| 2026-04-25 12:18 | 48.11853 | 16.57212 | 611 ft | 12 kts | 104° |
| 2026-04-25 12:18 | 48.11812 | 16.57329 | 618 ft | 12 kts | 131° |
| 2026-04-25 12:18 | 48.11732 | 16.57378 | 619 ft | 14 kts | 166° |
| 2026-04-25 12:19 | 48.11557 | 16.57450 | 625 ft | 15 kts | 165° |
| 2026-04-25 12:19 | 48.11428 | 16.57413 | 617 ft | 15 kts | 206° |
| 2026-04-25 12:19 | 48.11330 | 16.57342 | 620 ft | 17 kts | 205° |
| 2026-04-25 12:20 | 48.11219 | 16.57295 | 624 ft | 15 kts | 160° |
| 2026-04-25 12:20 | 48.11161 | 16.57419 | 622 ft | 14 kts | 116° |
| 2026-04-25 12:20 | 48.11119 | 16.57548 | 620 ft | 15 kts | 116° |
| 2026-04-25 12:20 | 48.11051 | 16.57642 | 611 ft | 14 kts | 180° |
| 2026-04-25 12:21 | 48.10967 | 16.57592 | 622 ft | 13 kts | 206° |
| 2026-04-25 12:21 | 48.10927 | 16.57497 | 618 ft | 7 kts | 285° |
| 2026-04-25 12:21 | 48.10936 | 16.57466 | 613 ft | 1 kts | 298° |
| 2026-04-25 12:22 | 48.10957 | 16.57408 | 613 ft | 27 kts | 298° |
| 2026-04-25 12:23 | 48.11154 | 16.56789 | 615 ft | 102 kts | 295° |
| 2026-04-25 12:23 | 48.11551 | 16.55549 | 657 ft | 155 kts | 295° |
| 2026-04-25 12:23 | 48.11983 | 16.54089 | 1428 ft | 153 kts | 282° |
| 2026-04-25 12:23 | 48.11784 | 16.52524 | 2135 ft | 166 kts | 240° |
| 2026-04-25 12:24 | 48.10954 | 16.51145 | 2584 ft | 188 kts | 235° |
| 2026-04-25 12:24 | 48.10206 | 16.49422 | 3030 ft | 210 kts | 244° |
| 2026-04-25 12:24 | 48.09454 | 16.47387 | 3500 ft | 239 kts | 245° |
| 2026-04-25 12:24 | 48.08640 | 16.45121 | 3958 ft | 252 kts | 245° |
| 2026-04-25 12:25 | 48.07807 | 16.42786 | 4411 ft | 256 kts | 245° |
| 2026-04-25 12:25 | 48.06957 | 16.40414 | 5142 ft | 260 kts | 245° |
| 2026-04-25 12:25 | 48.06222 | 16.37950 | 6243 ft | 260 kts | 254° |
| 2026-04-25 12:25 | 48.05648 | 16.35374 | 7211 ft | 264 kts | 255° |
| 2026-04-25 12:26 | 48.05070 | 16.32750 | 8211 ft | 268 kts | 255° |
| 2026-04-25 12:26 | 48.04495 | 16.30065 | 9143 ft | 274 kts | 255° |
| 2026-04-25 12:26 | 48.03919 | 16.27320 | 10103 ft | 279 kts | 256° |
| 2026-04-25 12:26 | 48.03303 | 16.24446 | 10540 ft | 303 kts | 255° |
| 2026-04-25 12:27 | 48.02442 | 16.21480 | 11171 ft | 320 kts | 239° |
| 2026-04-25 12:27 | 48.00997 | 16.18887 | 12044 ft | 328 kts | 232° |
| 2026-04-25 12:27 | 47.99466 | 16.16341 | 12954 ft | 331 kts | 231° |
| 2026-04-25 12:27 | 47.97908 | 16.13780 | 13704 ft | 336 kts | 231° |
| 2026-04-25 12:28 | 47.96331 | 16.11200 | 13937 ft | 336 kts | 231° |
| 2026-04-25 12:28 | 47.94767 | 16.08645 | 14003 ft | 326 kts | 231° |
| 2026-04-25 12:28 | 47.93271 | 16.06204 | 14010 ft | 315 kts | 231° |
| 2026-04-25 12:28 | 47.91801 | 16.03798 | 14018 ft | 313 kts | 231° |
| 2026-04-25 12:29 | 47.90340 | 16.01400 | 14017 ft | 312 kts | 231° |
| 2026-04-25 12:29 | 47.88883 | 15.99003 | 14013 ft | 312 kts | 231° |
| 2026-04-25 12:29 | 47.87291 | 15.96789 | 14028 ft | 316 kts | 220° |
| 2026-04-25 12:29 | 47.85371 | 15.95182 | 14019 ft | 320 kts | 206° |
| 2026-04-25 12:30 | 47.83280 | 15.94000 | 14013 ft | 321 kts | 204° |
| 2026-04-25 12:30 | 47.81216 | 15.92837 | 14022 ft | 321 kts | 204° |
| 2026-04-25 12:30 | 47.79128 | 15.91654 | 14017 ft | 321 kts | 205° |
| 2026-04-25 12:30 | 47.77041 | 15.90470 | 14016 ft | 321 kts | 205° |
| 2026-04-25 12:31 | 47.74959 | 15.89287 | 13908 ft | 318 kts | 205° |
| 2026-04-25 12:31 | 47.72910 | 15.88126 | 13655 ft | 313 kts | 205° |
| 2026-04-25 12:31 | 47.70890 | 15.86983 | 13389 ft | 310 kts | 204° |
| 2026-04-25 12:31 | 47.68879 | 15.85845 | 13127 ft | 308 kts | 204° |
| 2026-04-25 12:32 | 47.66884 | 15.84717 | 12865 ft | 307 kts | 205° |
| 2026-04-25 12:32 | 47.64893 | 15.83591 | 12605 ft | 306 kts | 204° |
| 2026-04-25 12:32 | 47.62908 | 15.82471 | 12346 ft | 305 kts | 205° |
| 2026-04-25 12:32 | 47.60934 | 15.81357 | 12095 ft | 303 kts | 204° |
| 2026-04-25 12:33 | 47.58966 | 15.80248 | 11842 ft | 302 kts | 205° |
| 2026-04-25 12:33 | 47.57002 | 15.79144 | 11593 ft | 301 kts | 204° |
| 2026-04-25 12:33 | 47.55050 | 15.78047 | 11328 ft | 300 kts | 204° |
| 2026-04-25 12:33 | 47.53103 | 15.76951 | 11086 ft | 300 kts | 204° |
| 2026-04-25 12:34 | 47.51155 | 15.75852 | 10842 ft | 299 kts | 204° |
| 2026-04-25 12:34 | 47.49210 | 15.74754 | 10596 ft | 298 kts | 204° |
| 2026-04-25 12:34 | 47.47338 | 15.73480 | 10357 ft | 294 kts | 215° |
| 2026-04-25 12:34 | 47.46252 | 15.72313 | 10193 ft | 291 kts | 224° |
| 2026-04-25 12:35 | 47.44498 | 15.69333 | 9903 ft | 287 kts | 236° |
| 2026-04-25 12:35 | 47.43309 | 15.67016 | 9781 ft | 287 kts | 235° |
| 2026-04-25 12:35 | 47.42099 | 15.64673 | 9646 ft | 286 kts | 236° |
| 2026-04-25 12:35 | 47.40886 | 15.62334 | 9316 ft | 282 kts | 236° |
| 2026-04-25 12:36 | 47.39711 | 15.60073 | 8936 ft | 280 kts | 235° |
| 2026-04-25 12:36 | 47.38530 | 15.57802 | 8529 ft | 277 kts | 235° |
| 2026-04-25 12:36 | 47.37360 | 15.55557 | 8139 ft | 275 kts | 234° |
| 2026-04-25 12:36 | 47.36198 | 15.53331 | 7758 ft | 273 kts | 234° |
| 2026-04-25 12:37 | 47.35065 | 15.51165 | 7683 ft | 260 kts | 235° |
| 2026-04-25 12:37 | 47.33988 | 15.49104 | 7572 ft | 247 kts | 235° |
| 2026-04-25 12:37 | 47.33100 | 15.47030 | 7471 ft | 231 kts | 249° |
| 2026-04-25 12:37 | 47.32645 | 15.44871 | 7495 ft | 212 kts | 262° |
| 2026-04-25 12:38 | 47.32389 | 15.42797 | 7491 ft | 202 kts | 262° |
| 2026-04-25 12:38 | 47.32133 | 15.40779 | 7495 ft | 199 kts | 262° |
| 2026-04-25 12:38 | 47.31860 | 15.38781 | 7495 ft | 200 kts | 255° |
| 2026-04-25 12:38 | 47.31152 | 15.37015 | 7501 ft | 205 kts | 226° |
| 2026-04-25 12:39 | 47.29936 | 15.35914 | 7425 ft | 211 kts | 200° |
| 2026-04-25 12:39 | 47.28452 | 15.35787 | 7063 ft | 218 kts | 171° |
| 2026-04-25 12:39 | 47.26976 | 15.36231 | 6748 ft | 215 kts | 170° |
| 2026-04-25 12:39 | 47.25517 | 15.36650 | 6421 ft | 212 kts | 170° |
| 2026-04-25 12:40 | 47.24082 | 15.37052 | 6120 ft | 209 kts | 170° |
| 2026-04-25 12:40 | 47.22658 | 15.37448 | 5816 ft | 206 kts | 171° |
| 2026-04-25 12:40 | 47.21268 | 15.37834 | 5537 ft | 200 kts | 170° |
| 2026-04-25 12:40 | 47.19912 | 15.38211 | 5276 ft | 197 kts | 170° |
| 2026-04-25 12:41 | 47.18570 | 15.38583 | 5007 ft | 194 kts | 171° |
| 2026-04-25 12:41 | 47.17255 | 15.38947 | 4770 ft | 190 kts | 170° |
| 2026-04-25 12:41 | 47.15979 | 15.39299 | 4510 ft | 188 kts | 170° |
| 2026-04-25 12:41 | 47.14682 | 15.39657 | 4266 ft | 187 kts | 170° |
| 2026-04-25 12:42 | 47.13412 | 15.40009 | 4018 ft | 185 kts | 169° |
| 2026-04-25 12:42 | 47.13000 | 15.40124 | 3939 ft | 185 kts | 169° |
| 2026-04-25 12:42 | 47.10907 | 15.40702 | 3533 ft | 182 kts | 170° |
| 2026-04-25 12:42 | 47.09670 | 15.41043 | 3299 ft | 180 kts | 171° |
| 2026-04-25 12:43 | 47.08435 | 15.41384 | 3016 ft | 178 kts | 170° |
| 2026-04-25 12:43 | 47.07265 | 15.41710 | 2761 ft | 163 kts | 170° |
| 2026-04-25 12:43 | 47.05197 | 15.42285 | 2279 ft | 142 kts | 171° |
| 2026-04-25 12:44 | 47.04243 | 15.42549 | 2062 ft | 138 kts | 170° |
| 2026-04-25 12:44 | 47.03305 | 15.42808 | 1835 ft | 137 kts | 169° |
| 2026-04-25 12:44 | 47.01443 | 15.43324 | 1414 ft | 136 kts | 168° |
| 2026-04-25 12:45 | 47.00514 | 15.43586 | 1219 ft | 136 kts | 168° |
| 2026-04-25 12:45 | 46.99607 | 15.43834 | 1113 ft | 124 kts | 168° |
| 2026-04-25 12:45 | 46.98557 | 15.44116 | 1099 ft | 29 kts | 169° |
| 2026-04-25 12:46 | 46.98477 | 15.44145 | 1100 ft | 7 kts | 150° |
| 2026-04-25 12:46 | 46.98447 | 15.44148 | 1100 ft | 4 kts | 265° |
| 2026-04-25 12:46 | 46.98520 | 15.44120 | 1098 ft | 16 kts | 353° |
| 2026-04-25 12:46 | 46.98652 | 15.44083 | 1103 ft | 22 kts | 349° |
| 2026-04-25 12:47 | 46.98812 | 15.44042 | 1104 ft | 25 kts | 350° |
| 2026-04-25 12:47 | 46.98987 | 15.43997 | 1103 ft | 26 kts | 349° |
| 2026-04-25 12:47 | 46.99164 | 15.43951 | 1103 ft | 20 kts | 351° |
| 2026-04-25 12:47 | 46.99275 | 15.44001 | 1111 ft | 18 kts | 41° |
| 2026-04-25 12:48 | 46.99368 | 15.44143 | 1109 ft | 20 kts | 46° |
| 2026-04-25 12:48 | 46.99426 | 15.44231 | 1109 ft | 16 kts | 43° |
| 2026-04-25 12:48 | 46.99528 | 15.44249 | 1109 ft | 12 kts | 348° |
| 2026-04-25 12:48 | 46.99594 | 15.44229 | 1109 ft | 8 kts | 351° |
| 2026-04-25 12:49 | 46.99609 | 15.44274 | 1113 ft | 5 kts | 105° |
| 2026-04-25 12:49 | 46.99595 | 15.44308 | 1106 ft | 3 kts | 126° |
| 2026-04-25 12:49 | 46.99589 | 15.44320 | 1109 ft | 0 kts | 127° |